createdAt,value
2022-09-09T00:02:14.366Z,1.92
2022-09-09T00:04:39.248Z,1.70
2022-09-09T00:07:28.886Z,2.30
2022-09-09T00:10:24.158Z,1.80
2022-09-09T00:13:02.543Z,2.17
2022-09-09T00:15:36.909Z,2.03
2022-09-09T00:18:11.300Z,1.90
2022-09-09T00:20:56.768Z,1.90
2022-09-09T00:23:29.881Z,2.43
2022-09-09T00:26:16.272Z,2.20
2022-09-09T00:29:11.193Z,2.30
2022-09-09T00:31:33.504Z,2.30
2022-09-09T00:34:03.756Z,2.50
2022-09-09T00:36:30.037Z,2.67
2022-09-09T00:39:02.739Z,2.40
2022-09-09T00:41:53.277Z,3.47
2022-09-09T00:45:11.034Z,3.77
2022-09-09T00:47:52.835Z,3.00
2022-09-09T00:50:44.825Z,2.90
2022-09-09T00:53:34.414Z,2.87
2022-09-09T00:56:24.482Z,2.70
2022-09-09T00:59:27.796Z,3.30
2022-09-09T01:01:52.857Z,2.63
2022-09-09T01:04:37.819Z,2.97
2022-09-09T01:07:20.043Z,2.60
2022-09-09T01:10:09.823Z,2.90
2022-09-09T01:12:54.967Z,2.90
2022-09-09T01:15:37.649Z,2.88
2022-09-09T01:18:23.375Z,3.23
2022-09-09T01:21:41.665Z,2.70
2022-09-09T01:24:34.814Z,3.03
2022-09-09T01:27:08.647Z,3.10
2022-09-09T01:29:30.991Z,2.67
2022-09-09T01:32:02.744Z,2.53
2022-09-09T01:34:36.624Z,3.13
2022-09-09T01:37:14.170Z,3.03
2022-09-09T01:39:40.006Z,2.83
2022-09-09T01:42:10.187Z,3.00
2022-09-09T01:44:32.741Z,3.00
2022-09-09T01:46:56.492Z,3.35
2022-09-09T01:49:19.735Z,3.43
2022-09-09T01:51:44.342Z,3.40
2022-09-09T01:54:09.343Z,2.87
2022-09-09T01:57:20.908Z,3.20
2022-09-09T02:00:10.747Z,3.20
2022-09-09T02:03:12.664Z,3.30
2022-09-09T02:06:25.107Z,3.37
2022-09-09T02:08:54.219Z,3.60
2022-09-09T02:11:24.379Z,3.40
2022-09-09T02:14:17.572Z,3.07
2022-09-09T02:16:51.089Z,3.50
2022-09-09T02:19:26.716Z,3.80
2022-09-09T02:22:01.433Z,3.63
2022-09-09T02:24:24.039Z,3.57
2022-09-09T02:26:59.141Z,3.43
2022-09-09T02:29:32.782Z,3.80
2022-09-09T02:32:04.175Z,3.70
2022-09-09T02:34:35.059Z,3.42
2022-09-09T02:37:01.952Z,3.33
2022-09-09T02:39:24.005Z,3.70
2022-09-09T02:41:48.402Z,3.43
2022-09-09T02:44:19.550Z,3.17
2022-09-09T02:47:17.717Z,3.30
2022-09-09T02:52:46.225Z,3.30
2022-09-09T02:55:23.097Z,3.93
2022-09-09T02:57:49.327Z,3.80
2022-09-09T03:00:13.589Z,3.63
2022-09-09T03:02:35.750Z,3.80
2022-09-09T03:05:01.017Z,3.90
2022-09-09T03:07:23.090Z,4.57
2022-09-09T03:09:46.777Z,4.10
2022-09-09T03:12:08.576Z,3.83
2022-09-09T03:14:31.497Z,4.10
2022-09-09T03:16:54.673Z,3.90
2022-09-09T03:19:16.994Z,4.00
2022-09-09T03:21:39.733Z,3.67
2022-09-09T03:24:04.318Z,3.73
2022-09-09T03:26:26.460Z,3.83
2022-09-09T03:28:48.561Z,4.13
2022-09-09T03:31:13.734Z,4.40
2022-09-09T03:33:42.141Z,3.60
2022-09-09T03:36:06.979Z,4.10
2022-09-09T03:38:30.237Z,4.03
2022-09-09T03:40:58.517Z,4.13
2022-09-09T03:43:22.253Z,3.60
2022-09-09T03:45:48.667Z,4.13
2022-09-09T03:48:12.867Z,4.03
2022-09-09T03:50:34.794Z,3.80
2022-09-09T03:52:57.160Z,3.93
2022-09-09T03:55:19.882Z,3.73
2022-09-09T03:57:42.142Z,4.40
2022-09-09T04:00:08.138Z,4.10
2022-09-09T04:02:38.513Z,4.10
2022-09-09T04:05:00.711Z,4.07
2022-09-09T04:07:22.734Z,4.30
2022-09-09T04:09:44.893Z,4.07
2022-09-09T04:12:07.713Z,3.90
2022-09-09T04:14:31.497Z,4.10
2022-09-09T04:16:53.735Z,4.30
2022-09-09T04:19:15.650Z,3.83
2022-09-09T04:21:40.955Z,4.13
2022-09-09T04:24:03.076Z,4.03
2022-09-09T04:26:25.197Z,4.13
2022-09-09T04:28:47.954Z,3.87
2022-09-09T04:31:24.565Z,4.07
2022-09-09T04:33:51.171Z,4.37
2022-09-09T04:36:14.118Z,4.70
2022-09-09T04:38:36.654Z,4.23
2022-09-09T04:40:59.610Z,4.07
2022-09-09T04:43:23.949Z,3.67
2022-09-09T04:45:50.350Z,4.38
2022-09-09T04:48:12.211Z,4.40
2022-09-09T04:50:34.367Z,4.20
2022-09-09T04:52:56.399Z,4.23
2022-09-09T04:55:18.181Z,4.33
2022-09-09T04:57:41.195Z,4.33
2022-09-09T05:00:07.876Z,3.80
2022-09-09T05:02:34.348Z,3.73
2022-09-09T05:04:56.306Z,3.80
2022-09-09T05:07:19.983Z,4.23
2022-09-09T05:09:41.913Z,3.73
2022-09-09T05:12:04.052Z,4.00
2022-09-09T05:14:31.094Z,4.17
2022-09-09T05:16:55.269Z,3.87
2022-09-09T05:19:20.139Z,4.10
2022-09-09T05:21:44.725Z,4.03
2022-09-09T05:24:08.577Z,3.88
2022-09-09T05:26:30.893Z,3.90
2022-09-09T05:28:54.423Z,4.00
2022-09-09T05:31:18.676Z,3.83
2022-09-09T05:33:47.042Z,3.43
2022-09-09T05:36:19.223Z,3.77
2022-09-09T05:38:43.961Z,4.13
2022-09-09T05:41:06.579Z,3.60
2022-09-09T05:43:28.460Z,3.70
2022-09-09T05:46:05.425Z,4.33
2022-09-09T05:48:49.082Z,3.83
2022-09-09T05:51:16.531Z,3.70
2022-09-09T05:53:38.797Z,3.50
2022-09-09T05:56:17.127Z,4.00
2022-09-09T05:58:39.998Z,3.67
2022-09-09T06:01:11.942Z,3.60
2022-09-09T06:03:40.483Z,4.00
2022-09-09T06:06:06.639Z,3.40
2022-09-09T06:08:29.344Z,3.50
2022-09-09T06:10:51.415Z,3.47
2022-09-09T06:13:14.188Z,3.50
2022-09-09T06:15:36.551Z,3.80
2022-09-09T06:17:58.916Z,3.80
2022-09-09T06:20:21.132Z,3.50
2022-09-09T06:22:43.137Z,3.80
2022-09-09T06:25:05.707Z,3.67
2022-09-09T06:27:29.771Z,4.33
2022-09-09T06:29:51.741Z,4.35
2022-09-09T06:32:13.599Z,3.80
2022-09-09T06:34:36.692Z,4.10
2022-09-09T06:36:59.320Z,3.87
2022-09-09T06:39:26.874Z,3.77
2022-09-09T06:41:49.515Z,4.23
2022-09-09T06:44:35.575Z,3.90
2022-09-09T06:46:59.124Z,4.43
2022-09-09T06:49:21.428Z,3.67
2022-09-09T06:51:46.006Z,3.40
2022-09-09T06:54:08.796Z,4.07
2022-09-09T06:56:36.456Z,4.23
2022-09-09T06:59:09.470Z,3.70
2022-09-09T07:01:35.974Z,4.10
2022-09-09T07:04:03.193Z,3.80
2022-09-09T07:06:33.397Z,3.93
2022-09-09T07:09:06.014Z,3.90
2022-09-09T07:11:32.673Z,4.00
2022-09-09T07:13:58.024Z,3.83
2022-09-09T07:16:28.366Z,4.07
2022-09-09T07:18:53.560Z,3.70
2022-09-09T07:21:16.975Z,3.80
2022-09-09T07:23:40.156Z,3.47
2022-09-09T07:26:02.511Z,4.30
2022-09-09T07:28:25.493Z,4.07
2022-09-09T07:31:03.969Z,3.50
2022-09-09T07:33:27.188Z,4.00
2022-09-09T07:35:49.335Z,3.37
2022-09-09T07:38:12.174Z,3.40
2022-09-09T07:40:35.022Z,3.33
2022-09-09T07:42:57.148Z,3.40
2022-09-09T07:45:19.073Z,3.80
2022-09-09T07:47:43.431Z,3.80
2022-09-09T07:50:05.797Z,3.38
2022-09-09T07:52:28.599Z,3.20
2022-09-09T07:54:54.380Z,3.07
2022-09-09T07:57:19.509Z,3.37
2022-09-09T07:59:42.239Z,3.00
2022-09-09T08:02:04.451Z,3.20
2022-09-09T08:04:29.189Z,3.03
2022-09-09T08:07:01.970Z,2.53
2022-09-09T08:09:29.778Z,3.20
2022-09-09T08:12:02.370Z,2.70
2022-09-09T08:14:25.868Z,2.78
2022-09-09T08:16:50.784Z,2.70
2022-09-09T08:19:16.462Z,2.90
2022-09-09T08:21:41.700Z,2.63
2022-09-09T08:24:04.321Z,2.80
2022-09-09T08:26:31.397Z,2.33
2022-09-09T08:28:57.515Z,2.57
2022-09-09T08:31:33.050Z,2.60
2022-09-09T08:33:57.594Z,2.80
2022-09-09T08:36:23.439Z,2.50
2022-09-09T08:38:50.713Z,2.33
2022-09-09T08:41:31.975Z,2.43
2022-09-09T08:44:34.124Z,2.27
2022-09-09T08:47:23.735Z,2.17
2022-09-09T08:50:26.396Z,2.30
2022-09-09T08:53:02.651Z,2.23
2022-09-09T08:55:39.917Z,1.90
2022-09-09T08:58:13.912Z,2.80
2022-09-09T09:01:00.650Z,2.40
2022-09-09T09:03:34.289Z,2.00
2022-09-09T09:06:23.783Z,2.27
2022-09-09T09:09:19.066Z,2.20
2022-09-09T09:12:01.818Z,1.90
2022-09-09T09:14:35.265Z,2.30
2022-09-09T09:17:05.429Z,2.10
2022-09-09T09:19:31.353Z,2.30
2022-09-09T09:22:21.637Z,2.13
2022-09-09T09:25:13.426Z,1.90
2022-09-09T09:27:58.290Z,2.20
2022-09-09T09:30:30.371Z,2.20
2022-09-09T09:33:09.894Z,1.93
2022-09-09T09:35:33.536Z,2.25
2022-09-09T09:41:01.224Z,2.10
2022-09-09T09:43:37.850Z,2.20
2022-09-09T09:46:17.267Z,2.17
2022-09-09T09:48:41.348Z,2.50
2022-09-09T09:51:14.093Z,2.10
2022-09-09T09:53:39.961Z,2.23
2022-09-09T09:56:07.552Z,2.10
2022-09-09T09:58:35.092Z,2.10
2022-09-09T10:00:57.443Z,2.30
2022-09-09T10:03:33.401Z,1.70
2022-09-09T10:05:57.432Z,2.22
2022-09-09T10:08:20.866Z,2.17
2022-09-09T10:11:25.704Z,2.00
2022-09-09T10:14:16.093Z,2.20
2022-09-09T10:17:13.027Z,2.40
2022-09-09T10:19:38.378Z,2.07
2022-09-09T10:22:35.134Z,2.30
2022-09-09T10:25:27.231Z,2.37
2022-09-09T10:28:19.116Z,1.93
2022-09-09T10:31:23.883Z,2.47
2022-09-09T10:33:52.841Z,2.17
2022-09-09T10:36:27.035Z,2.27
2022-09-09T10:39:01.988Z,1.90
2022-09-09T10:44:14.886Z,2.33
2022-09-09T10:46:55.218Z,2.10
2022-09-09T10:50:28.080Z,1.70
2022-09-09T10:53:09.331Z,1.87
2022-09-09T10:55:44.836Z,2.00
2022-09-09T10:58:15.654Z,2.50
2022-09-09T11:00:46.374Z,2.40
2022-09-09T11:03:21.388Z,2.30
2022-09-09T11:05:48.223Z,2.67
2022-09-09T11:08:26.868Z,2.60
2022-09-09T11:11:18.873Z,2.50
2022-09-09T11:13:52.416Z,2.20
2022-09-09T11:16:28.363Z,2.53
2022-09-09T11:18:50.351Z,2.73
2022-09-09T11:21:31.521Z,2.77
2022-09-09T11:24:19.196Z,2.70
2022-09-09T11:27:26.064Z,3.30
2022-09-09T11:30:53.717Z,2.90
2022-09-09T11:33:41.797Z,2.87
2022-09-09T11:36:50.347Z,3.00
2022-09-09T11:39:31.407Z,3.20
2022-09-09T11:41:53.226Z,3.17
2022-09-09T11:44:32.228Z,3.43
2022-09-09T11:46:54.135Z,2.90
2022-09-09T11:49:43.311Z,3.07
2022-09-09T11:52:36.930Z,3.00
2022-09-09T11:55:09.262Z,3.17
2022-09-09T11:57:37.689Z,2.80
2022-09-09T12:00:00.263Z,2.70
2022-09-09T12:02:32.062Z,2.90
2022-09-09T12:05:13.558Z,2.20
2022-09-09T12:07:48.633Z,2.40
2022-09-09T12:10:33.865Z,2.00
2022-09-09T12:15:30.121Z,2.10
2022-09-09T12:17:58.064Z,2.05
2022-09-09T12:20:26.910Z,2.10
2022-09-09T12:23:27.805Z,2.50
2022-09-09T12:26:17.488Z,2.10
2022-09-09T12:29:04.442Z,2.30
2022-09-09T12:31:45.841Z,2.50
2022-09-09T12:34:34.974Z,2.30
2022-09-09T12:37:06.962Z,2.80
2022-09-09T12:39:48.504Z,2.90
2022-09-09T12:42:22.380Z,2.93
2022-09-09T12:45:18.026Z,2.80
2022-09-09T12:50:28.940Z,3.03
2022-09-09T12:52:56.071Z,3.33
2022-09-09T12:55:27.177Z,2.97
2022-09-09T12:57:51.524Z,2.90
2022-09-09T13:00:18.936Z,2.85
2022-09-09T13:02:51.666Z,3.25
2022-09-09T13:05:21.650Z,3.30
2022-09-09T13:07:44.247Z,3.58
2022-09-09T13:10:08.254Z,2.90
2022-09-09T13:12:30.393Z,3.13
2022-09-09T13:14:57.307Z,2.83
2022-09-09T13:17:29.925Z,2.80
2022-09-09T13:19:54.410Z,3.17
2022-09-09T13:22:34.958Z,2.80
2022-09-09T13:25:22.618Z,2.70
2022-09-09T13:28:03.396Z,2.90
2022-09-09T13:30:37.360Z,2.85
2022-09-09T13:33:04.924Z,2.90
2022-09-09T13:35:27.170Z,3.22
2022-09-09T13:37:49.022Z,3.05
2022-09-09T13:40:22.660Z,3.22
2022-09-09T13:42:45.981Z,3.22
2022-09-09T13:45:21.529Z,2.75
2022-09-09T13:47:43.332Z,3.10
2022-09-09T13:50:24.671Z,3.83
2022-09-09T13:52:48.422Z,4.28
2022-09-09T13:55:11.081Z,4.43
2022-09-09T13:57:32.872Z,4.10
2022-09-09T14:00:05.218Z,4.03
2022-09-09T14:02:27.804Z,2.77
2022-09-09T14:04:51.812Z,3.53
2022-09-09T14:07:17.529Z,2.80
2022-09-09T14:09:40.445Z,3.00
2022-09-09T14:12:03.465Z,2.60
2022-09-09T14:14:26.729Z,2.92
2022-09-09T14:16:48.595Z,3.25
2022-09-09T14:19:10.687Z,3.00
2022-09-09T14:21:33.631Z,3.40
2022-09-09T14:23:55.930Z,3.65
2022-09-09T14:26:19.985Z,3.35
2022-09-09T14:28:58.025Z,3.50
2022-09-09T14:31:20.252Z,2.75
2022-09-09T14:33:42.167Z,2.58
2022-09-09T14:36:05.143Z,2.53
2022-09-09T14:38:34.787Z,2.47
2022-09-09T14:40:57.201Z,2.15
2022-09-09T14:43:19.081Z,2.45
2022-09-09T14:45:40.893Z,2.30
2022-09-09T14:48:04.121Z,2.08
2022-09-09T14:50:26.041Z,2.13
2022-09-09T14:52:48.744Z,2.17
2022-09-09T14:55:10.883Z,1.88
2022-09-09T14:57:33.229Z,2.20
2022-09-09T14:59:55.094Z,2.50
2022-09-09T15:02:17.637Z,2.63
2022-09-09T15:04:39.693Z,2.20
2022-09-09T15:07:01.572Z,2.20
2022-09-09T15:09:23.976Z,2.08
2022-09-09T15:11:46.089Z,2.03
2022-09-09T15:14:10.334Z,2.20
2022-09-09T15:16:35.344Z,2.00
2022-09-09T15:19:01.079Z,2.20
2022-09-09T15:21:28.064Z,2.13
2022-09-09T15:23:50.914Z,2.00
2022-09-09T15:26:15.174Z,1.88
2022-09-09T15:28:39.564Z,2.00
2022-09-09T15:31:08.955Z,2.10
2022-09-09T15:33:30.806Z,2.38
2022-09-09T15:35:52.879Z,2.30
2022-09-09T15:38:14.702Z,2.78
2022-09-09T15:40:36.799Z,2.47
2022-09-09T15:42:59.367Z,2.58
2022-09-09T15:45:21.600Z,2.67
2022-09-09T15:47:43.373Z,2.38
2022-09-09T15:50:05.819Z,2.50
2022-09-09T15:52:27.571Z,2.17
2022-09-09T15:54:49.394Z,2.58
2022-09-09T15:57:14.508Z,2.60
2022-09-09T15:59:36.595Z,2.22
2022-09-09T16:02:01.197Z,1.93
2022-09-09T16:04:25.886Z,1.35
2022-09-09T16:09:10.999Z,1.87
2022-09-09T16:11:37.816Z,1.73
2022-09-09T16:14:01.102Z,1.30
2022-09-09T16:16:27.697Z,1.90
2022-09-09T16:18:54.052Z,1.10
2022-09-09T16:21:25.234Z,1.20
2022-09-09T16:23:47.193Z,1.30
2022-09-09T16:26:13.953Z,1.00
2022-09-09T16:28:36.435Z,1.17
2022-09-09T16:30:59.309Z,1.00
2022-09-09T16:33:21.319Z,1.03
2022-09-09T16:35:43.247Z,0.90
2022-09-09T16:38:05.195Z,1.00
2022-09-09T16:40:27.064Z,1.10
2022-09-09T16:42:48.996Z,1.27
2022-09-09T16:45:11.279Z,1.20
2022-09-09T16:47:33.008Z,1.50
2022-09-09T16:49:54.849Z,1.60
2022-09-09T16:52:20.391Z,1.30
2022-09-09T16:54:42.510Z,1.50
2022-09-09T16:57:04.638Z,1.73
2022-09-09T16:59:27.661Z,1.73
2022-09-09T17:01:52.926Z,1.60
2022-09-09T17:04:21.486Z,1.77
2022-09-09T17:06:47.796Z,1.70
2022-09-09T17:09:12.143Z,2.10
2022-09-09T17:11:35.195Z,2.15
2022-09-09T17:13:59.699Z,2.10
2022-09-09T17:18:47.011Z,2.23
2022-09-09T17:21:14.991Z,2.50
2022-09-09T17:23:38.973Z,2.50
2022-09-09T17:26:02.114Z,3.10
2022-09-09T17:28:27.231Z,2.80
2022-09-09T17:30:53.713Z,3.00
2022-09-09T17:33:15.517Z,3.30
2022-09-09T17:35:37.616Z,2.80
2022-09-09T17:37:59.673Z,3.30
2022-09-09T17:40:22.808Z,2.60
2022-09-09T17:42:44.625Z,2.70
2022-09-09T17:45:07.472Z,2.67
2022-09-09T17:47:31.672Z,2.40
2022-09-09T17:49:53.493Z,2.75
2022-09-09T17:52:16.898Z,2.63
2022-09-09T17:54:38.941Z,2.20
2022-09-09T17:57:00.771Z,2.70
2022-09-09T17:59:22.562Z,2.80
2022-09-09T18:01:49.577Z,2.50
2022-09-09T18:04:14.868Z,3.17
2022-09-09T18:06:45.268Z,3.07
2022-09-09T18:09:13.342Z,2.67
2022-09-09T18:11:43.035Z,2.67
2022-09-09T18:14:05.794Z,2.70
2022-09-09T18:16:32.077Z,3.10
2022-09-09T18:18:58.343Z,3.07
2022-09-09T18:21:20.432Z,3.00
2022-09-09T18:23:43.708Z,2.80
2022-09-09T18:26:15.310Z,2.80
2022-09-09T18:28:42.780Z,2.43
2022-09-09T18:31:14.213Z,2.80
2022-09-09T18:33:39.228Z,2.43
2022-09-09T18:36:10.550Z,2.53
2022-09-09T18:38:35.424Z,2.93
2022-09-09T18:40:58.618Z,3.10
2022-09-09T18:43:20.521Z,2.90
2022-09-09T18:45:42.339Z,2.90
2022-09-09T18:48:05.639Z,2.80
2022-09-09T18:50:27.883Z,2.70
2022-09-09T18:52:49.708Z,2.67
2022-09-09T18:55:11.549Z,2.87
2022-09-09T18:57:36.387Z,2.83
2022-09-09T18:59:58.725Z,3.07
2022-09-09T19:02:21.743Z,3.13
2022-09-09T19:04:43.559Z,2.90
2022-09-09T19:07:05.307Z,2.90
2022-09-09T19:09:31.737Z,3.30
2022-09-09T19:11:54.020Z,3.03
2022-09-09T19:14:18.181Z,3.40
2022-09-09T19:16:40.606Z,3.45
2022-09-09T19:19:07.051Z,3.63
2022-09-09T19:21:36.642Z,3.67
2022-09-09T19:24:06.612Z,4.03
2022-09-09T19:26:33.275Z,3.70
2022-09-09T19:28:57.503Z,3.77
2022-09-09T19:31:20.796Z,4.22
2022-09-09T19:33:47.152Z,4.27
2022-09-09T19:36:11.399Z,4.37
2022-09-09T19:38:34.330Z,4.18
2022-09-09T19:40:56.978Z,4.50
2022-09-09T19:43:18.824Z,4.40
2022-09-09T19:45:40.935Z,4.50
2022-09-09T19:48:03.169Z,5.03
2022-09-09T19:50:25.027Z,4.37
2022-09-09T19:52:47.321Z,4.53
2022-09-09T19:55:09.531Z,4.40
2022-09-09T19:57:31.578Z,4.70
2022-09-09T19:59:53.397Z,4.70
2022-09-09T20:02:15.820Z,4.60
2022-09-09T20:04:38.823Z,4.80
2022-09-09T20:07:00.753Z,4.70
2022-09-09T20:09:22.678Z,5.13
2022-09-09T20:11:47.852Z,5.00
2022-09-09T20:14:11.898Z,4.90
2022-09-09T20:16:34.048Z,4.90
2022-09-09T20:19:01.179Z,4.80
2022-09-09T20:21:33.823Z,5.20
2022-09-09T20:23:56.063Z,5.53
2022-09-09T20:26:22.677Z,5.23
2022-09-09T20:28:45.474Z,5.90
2022-09-09T20:31:15.028Z,6.10
2022-09-09T20:33:36.947Z,5.47
2022-09-09T20:36:05.293Z,5.33
2022-09-09T20:38:27.565Z,5.20
2022-09-09T20:40:49.339Z,5.47
2022-09-09T20:43:14.768Z,4.97
2022-09-09T20:45:40.051Z,5.00
2022-09-09T20:48:01.976Z,5.17
2022-09-09T20:50:24.428Z,4.90
2022-09-09T20:52:47.639Z,5.47
2022-09-09T20:55:09.801Z,5.80
2022-09-09T20:57:31.543Z,5.23
2022-09-09T20:59:53.359Z,5.63
2022-09-09T21:02:15.284Z,5.23
2022-09-09T21:04:38.374Z,4.90
2022-09-09T21:07:00.784Z,4.23
2022-09-09T21:09:24.531Z,5.03
2022-09-09T21:11:47.261Z,4.60
2022-09-09T21:14:10.042Z,4.20
2022-09-09T21:16:32.080Z,4.57
2022-09-09T21:18:54.791Z,4.40
2022-09-09T21:21:21.518Z,4.50
2022-09-09T21:23:43.873Z,4.97
2022-09-09T21:26:07.648Z,5.00
2022-09-09T21:28:29.662Z,5.40
2022-09-09T21:30:55.891Z,6.03
2022-09-09T21:33:20.924Z,5.50
2022-09-09T21:35:43.280Z,5.60
2022-09-09T21:38:13.365Z,6.20
2022-09-09T21:40:39.818Z,5.67
2022-09-09T21:43:04.191Z,6.23
2022-09-09T21:45:27.951Z,6.20
2022-09-09T21:47:51.104Z,5.93
2022-09-09T21:50:14.346Z,6.10
2022-09-09T21:52:36.832Z,6.40
2022-09-09T21:54:58.656Z,5.97
2022-09-09T21:57:24.791Z,5.60
2022-09-09T21:59:46.962Z,5.53
2022-09-09T22:02:10.751Z,5.50
2022-09-09T22:04:32.712Z,5.30
2022-09-09T22:06:54.474Z,5.80
2022-09-09T22:09:16.375Z,5.73
2022-09-09T22:11:38.281Z,5.50
2022-09-09T22:14:02.131Z,5.63
2022-09-09T22:16:24.276Z,5.38
2022-09-09T22:18:57.010Z,5.57
2022-09-09T22:21:19.528Z,5.13
2022-09-09T22:23:41.807Z,5.00
2022-09-09T22:26:05.399Z,5.30
2022-09-09T22:28:27.378Z,5.13
2022-09-09T22:30:49.431Z,4.93
2022-09-09T22:33:12.123Z,4.73
2022-09-09T22:35:42.379Z,4.93
2022-09-09T22:38:04.186Z,4.70
2022-09-09T22:40:26.015Z,4.87
2022-09-09T22:42:52.413Z,4.93
2022-09-09T22:45:14.938Z,4.77
2022-09-09T22:47:37.819Z,4.40
2022-09-09T22:49:59.668Z,4.67
2022-09-09T22:52:21.837Z,4.80
2022-09-09T22:54:43.964Z,4.90
2022-09-09T22:57:06.295Z,5.00
2022-09-09T22:59:28.148Z,4.37
2022-09-09T23:01:51.402Z,4.43
2022-09-09T23:04:13.930Z,4.20
2022-09-09T23:06:38.506Z,5.17
2022-09-09T23:11:29.189Z,5.00
2022-09-09T23:13:54.851Z,4.43
2022-09-09T23:16:24.713Z,4.50
2022-09-09T23:18:48.000Z,4.20
2022-09-09T23:21:13.049Z,4.30
2022-09-09T23:23:35.281Z,4.77
2022-09-09T23:25:57.111Z,4.30
2022-09-09T23:28:18.880Z,5.13
2022-09-09T23:30:42.567Z,4.90
2022-09-09T23:33:04.344Z,4.45
2022-09-09T23:35:26.634Z,4.90
2022-09-09T23:37:48.661Z,4.93
2022-09-09T23:40:11.274Z,5.00
2022-09-09T23:42:33.487Z,5.23
2022-09-09T23:44:55.575Z,6.00
2022-09-09T23:47:17.314Z,5.73
2022-09-09T23:49:39.638Z,6.63
2022-09-09T23:52:05.542Z,6.67
2022-09-09T23:54:27.439Z,7.90
2022-09-09T23:56:49.549Z,8.87
2022-09-09T23:59:12.155Z,9.63
